This is the latest recevied weather packets stored in our database for station/object DG8SF-13. If no packets are shown the sender has not sent any weather packets the latest 10 day(s).
| Time | Temp. | Humidity | Pressure | Rain* | Wind** | Luminosity | Snow |
|---|---|---|---|---|---|---|---|
| 1777866906 | 8.33° C | 81% | 1014.7 hPa | 0 mm | - | - | - |
| 1777865969 | 8.89° C | 79% | 1014.7 hPa | 0 mm | - | - | - |
| 1777865348 | 9.44° C | 77% | 1014.7 hPa | 0 mm | - | - | - |
| 1777847563 | 12.22° C | 61% | 1014.8 hPa | 0 mm | - | - | - |
| 1777847250 | 12.78° C | 60% | 1014.7 hPa | 0 mm | - | - | - |
| 1777846939 | 12.78° C | 60% | 1014.7 hPa | 0 mm | - | - | - |
| 1777846318 | 12.78° C | 59% | 1014.6 hPa | 0 mm | - | - | - |
| 1777845692 | 12.78° C | 59% | 1014.6 hPa | 0 mm | - | - | - |
| 1777845378 | 12.78° C | 58% | 1014.5 hPa | 0 mm | - | - | - |
| 1777845068 | 13.33° C | 58% | 1014.5 hPa | 0 mm | - | - | - |
| 1777844130 | 13.33° C | 56% | 1014.5 hPa | 0 mm | - | - | - |
| 1777840387 | 15.56° C | 53% | 1013.6 hPa | 0 mm | - | - | - |
| 1777840076 | 16.11° C | 52% | 1013.5 hPa | 0 mm | - | - | - |
| 1777839761 | 16.11° C | 52% | 1013.4 hPa | 0 mm | - | - | - |
| 1777839451 | 16.67° C | 52% | 1013.3 hPa | 0 mm | - | - | - |
| 1777839141 | 16.67° C | 52% | 1013.3 hPa | 0 mm | - | - | - |
| 1777838517 | 16.67° C | 52% | 1013.1 hPa | 0 mm | - | - | - |
| 1777838203 | 17.22° C | 52% | 1013.1 hPa | 0 mm | - | - | - |
| 1777837579 | 17.22° C | 54% | 1012.9 hPa | 0 mm | - | - | - |
| 1777837267 | 17.78° C | 56% | 1012.7 hPa | 0 mm | - | - | - |
| 1777836953 | 17.78° C | 56% | 1012.7 hPa | 0 mm | - | - | - |
| 1777836647 | 17.78° C | 55% | 1012.6 hPa | 0 mm | - | - | - |
| 1777833210 | 19.44° C | 47% | 1012 hPa | 0 mm | - | - | - |
| 1777832900 | 20° C | 46% | 1011.8 hPa | 0 mm | - | - | - |
| 1777832276 | 20° C | 45% | 1011.8 hPa | 0 mm | - | - | - |
* Rain latest hour (hover to see other rain measurements)
** Current wind speed in m/s (hover to see current wind gust speed)